This is the latest recevied weather packets stored in our database for station/object AD9CI-15. If no packets are shown the sender has not sent any weather packets the latest 10 day(s).
| Time | Temp. | Humidity | Pressure | Rain* | Wind** | Luminosity | Snow |
|---|---|---|---|---|---|---|---|
| 1777575862 | 5.56° C | 70% | 1016.1 hPa | - | - | - | - |
| 1777573943 | 6.11° C | 69% | 1016.2 hPa | - | - | - | - |
| 1777572264 | 5.56° C | 69% | 1016.3 hPa | - | - | - | - |
| 1777570344 | 6.67° C | 67% | 1016.4 hPa | - | - | - | - |
| 1777568664 | 6.67° C | 66% | 1016.4 hPa | - | - | - | - |
| 1777566744 | 7.22° C | 65% | 1016.5 hPa | - | - | - | - |
| 1777565064 | 7.78° C | 64% | 1016.4 hPa | - | - | - | - |
| 1777563144 | 8.33° C | 65% | 1016.4 hPa | - | - | - | - |
| 1777561463 | 8.33° C | 68% | 1016.6 hPa | - | - | - | - |
| 1777555942 | 6.67° C | 68% | 1016.4 hPa | - | - | - | - |
| 1777554306 | 5.56° C | 68% | 1016.2 hPa | - | - | - | - |
| 1777554263 | 5.56° C | 68% | 1016.2 hPa | - | - | - | - |
| 1777552395 | 6.67° C | 67% | 1016.4 hPa | - | - | - | - |
| 1777552344 | 6.67° C | 67% | 1016.4 hPa | - | - | - | - |
| 1777550664 | 4.44° C | 75% | 1016.2 hPa | - | - | - | - |
| 1777548743 | 3.89° C | 76% | 1016.2 hPa | - | - | - | - |
| 1777547064 | 3.89° C | 76% | 1015.9 hPa | - | - | - | - |
| 1777543464 | 4.44° C | 77% | 1015.9 hPa | - | - | - | - |
| 1777541542 | 4.44° C | 77% | 1016 hPa | - | - | - | - |
| 1777537942 | 5° C | 78% | 1015.9 hPa | - | - | - | - |
| 1777536263 | 5° C | 77% | 1015.8 hPa | - | - | - | - |
| 1777534342 | 5° C | 78% | 1015.9 hPa | - | - | - | - |
| 1777532662 | 5.56° C | 78% | 1016 hPa | - | - | - | - |
| 1777530743 | 5.56° C | 78% | 1016.2 hPa | - | - | - | - |
| 1777527143 | 5.56° C | 78% | 1016.3 hPa | - | - | - | - |
* Rain since midnight (hover to see other rain measurements)
** Current wind speed in m/s (hover to see current wind gust speed)